Latest Coastal Weather Observations for Gabo Island

IDV60701

Issued at 10:51 am EDT Friday 9 December 2016 (issued every 10 minutes, with the page automatically refreshed every 10 minutes)

About coastal observations | Map of coastal stations | Coastal observations for VIC | Marine services | Other Formats
Station Details ID: 084016 Name: GABO ISLAND LIGHTHOUSE Lat: -37.57 Lon: 149.92 Height: 15.2 m
Data from the previous 72 hours. | See also: Recent months at Gabo Island
Date/Time
EDT
Temp
°C
Wind Pressure Rain since
9am
mm
Weather Cloud Vis
km
Sea
Height
m
Swell
Dir  Spd
kts
Gust
kts
hPa Trend Height
m
Period
s
Dir
09/10:45am 13.4 W 29 39 1009.2 - 0.0 - - - - - - -
09/10:30am 12.6 W 31 39 1009.1 - 0.0 - - - - - - -
09/10:00am 13.7 WSW 29 39 1008.4 - 0.0 - - - - - - -
09/09:30am 13.4 WSW 29 39 1008.2 - 0.0 - - - - - - -
09/09:00am 13.4 WSW 32 43 1007.9 - 4.2 - - - - - - -
09/08:30am 13.4 W 28 38 1007.5 - 4.2 - - - - - - -
09/08:22am 12.8 W 28 38 1007.4 - 4.2 - - - - - - -
09/08:00am 12.3 WSW 29 36 1007.1 - 4.2 - - - - - - -
09/07:43am 12.4 W 27 37 1006.7 - 4.0 - - - - - - -
09/07:30am 13.0 W 26 33 1006.4 - 4.0 - - - - - - -
09/07:05am 12.0 WSW 27 37 1006.3 - 4.0 - - - - - - -
09/07:00am 12.0 WSW 29 37 1006.2 - 4.0 - - - - - - -
09/06:48am 13.1 W 27 37 1005.8 - 4.0 - - - - - - -
09/06:30am 13.2 WSW 26 35 1005.4 - 4.0 - - - - - - -
09/06:01am 13.4 W 25 35 1004.5 - 4.0 - - - - - - -
09/06:00am 13.4 W 26 35 1004.4 - 4.0 - - - - - - -
09/05:52am 13.5 WSW 25 35 1004.4 - 4.0 - - - - - - -
09/05:30am 13.4 W 26 32 1004.0 - 4.0 - - - - - - -
09/05:06am 13.8 W 27 37 1003.3 - 4.0 - - - - - - -
09/05:00am 13.9 W 28 37 1003.1 - 4.0 - - - - - - -
09/04:30am 14.1 WSW 27 34 1003.0 - 4.0 - - - - - - -
09/04:02am 14.4 WSW 25 35 1002.8 - 4.0 - - - - - - -
09/04:00am 14.3 WSW 26 35 1002.8 - 4.0 - - - - - - -
09/03:30am 14.4 WSW 28 35 1002.3 - 4.0 - - - - - - -
09/03:14am 14.5 WSW 29 39 1002.0 - 4.0 - - - - - - -
09/03:00am 14.6 WSW 29 36 1001.6 - 4.0 Fine Mostly clear 30 2 1.0 6 S
09/02:42am 14.9 WSW 28 38 1001.5 - 4.0 - - - - - - -
09/02:30am 14.9 WSW 30 37 1001.2 - 4.0 - - - - - - -
09/02:00am 15.3 WSW 36 48 1000.2 - 4.0 - - - - - - -
09/01:30am 15.2 WSW 36 47 999.8 - 4.0 - - - - - - -
09/01:24am 15.3 WSW 35 46 999.8 - 4.0 - - - - - - -
09/01:00am 15.4 WSW 31 39 1000.4 - 4.0 - - - - - - -
09/12:30am 15.8 WSW 39 49 999.8 - 4.0 - - - - - - -
09/12:10am 16.0 WSW 35 45 999.7 - 4.0 - - - - - - -
09/12:00am 16.2 WSW 33 42 999.9 - 4.0 - - - - - - -
 
Date/Time
EDT
Temp
°C
Wind Pressure Rain since
9am
mm
Weather Cloud Vis
km
Sea
Height
m
Swell
Dir  Spd
kts
Gust
kts
hPa Trend Height
m
Period
s
Dir
08/11:30pm 16.5 WSW 31 39 1000.0 - 4.0 - - - - - - -
08/11:22pm 16.8 WSW 29 38 1000.0 - 4.0 - - - - - - -
08/11:02pm 16.0 W 17 27 1000.2 - 4.0 - - - - - - -
08/11:00pm 16.0 W 15 22 1000.2 - 4.0 - - - - - - -
08/10:30pm 15.9 W 19 24 1000.1 - 4.0 - - - - - - -
08/10:00pm 14.8 WNW 12 15 999.8 - 4.0 - - - - - - -
08/09:30pm 14.9 WNW 11 14 999.7 - 4.0 - - - - - - -
08/09:00pm 14.6 W 15 18 999.4 - 4.0 Fine Mostly cloudy 25 1 1.0 7 NE
08/08:30pm 14.7 WSW 19 23 999.3 - 3.2 - - - - - - -
08/08:00pm 15.1 WSW 18 25 999.6 - 2.2 - - - - - - -
08/07:30pm 15.3 WSW 19 25 999.6 - 2.0 - - - - - - -
08/07:00pm 15.4 WSW 25 30 999.3 - 2.0 - - - - - - -
08/06:30pm 15.3 SW 29 36 998.6 - 2.0 - - - - - - -
08/06:00pm 15.9 SW 32 39 997.8 - 1.8 Recent precip. - - - - - -
08/05:30pm 18.0 SW 34 45 997.5 - 0.0 - - - - - - -
08/05:21pm 18.8 SW 28 41 996.3 - 0.0 - - - - - - -
08/05:19pm 19.2 SW 26 34 996.6 - 0.0 - - - - - - -
08/05:17pm 20.3 W 25 33 996.6 - 0.0 - - - - - - -
08/05:16pm 21.6 N 26 33 995.5 - 0.0 - - - - - - -
08/05:00pm 21.8 NNE 26 31 993.4 - 0.0 - - - - - - -
08/04:30pm 21.7 NNE 26 33 993.2 - 0.0 - - - - - - -
08/04:00pm 21.9 NNE 25 31 993.8 - 0.0 - - - - - - -
08/03:30pm 22.0 NNE 25 33 994.2 - 0.0 - - - - - - -
08/03:00pm 21.0 NNE 26 29 994.8 - 0.0 Fine Cloudy 15 1 1.0 6 NE
08/02:30pm 20.7 NNE 25 31 995.9 - 0.0 - - - - - - -
08/02:00pm 21.2 NNE 22 28 996.4 - 0.0 - - - - - - -
08/01:30pm 20.9 NNE 25 31 996.8 - 0.0 - - - - - - -
08/01:00pm 21.8 NNE 23 28 997.7 - 0.0 - - - - - - -
08/12:30pm 22.1 NNE 20 24 998.5 - 0.0 - - - - - - -
08/12:00pm 22.4 NNE 21 27 999.0 - 0.0 - - - - - - -
08/11:30am 22.6 NNE 22 26 999.3 - 0.0 - - - - - - -
08/11:00am 22.0 NNE 23 26 999.7 - 0.0 - - - - - - -
08/10:30am 21.0 NNE 26 30 1000.3 - 0.0 - - - - - - -
08/10:00am 20.4 NNE 27 31 1000.9 - 0.0 - - - - - - -
08/09:30am 21.6 NNE 23 30 1001.5 - 0.0 - - - - - - -
08/09:00am 20.8 NNE 23 30 1002.5 - 0.0 Fine Mostly cloudy 30 1 0.8 8 S
08/08:30am 20.2 NNE 25 30 1002.7 - 0.0 - - - - - - -
08/08:00am 20.1 NNE 26 30 1003.1 - 0.0 - - - - - - -
08/07:30am 19.8 NNE 26 32 1003.4 - 0.0 - - - - - - -
08/07:00am 19.6 NNE 24 30 1003.8 - 0.0 - - - - - - -
08/06:30am 19.1 NNE 25 30 1004.0 - 0.0 - - - - - - -
08/06:00am 18.9 NNE 24 30 1004.3 - 0.0 - - - - - - -
08/05:30am 18.8 NNE 25 32 1004.4 - 0.0 - - - - - - -
08/05:00am 18.4 NNE 25 31 1004.6 - 0.0 - - - - - - -
08/04:30am 18.6 NNE 26 33 1005.0 - 0.0 - - - - - - -
08/04:00am 18.6 NNE 25 30 1005.7 - 0.0 - - - - - - -
08/03:30am 18.4 NNE 26 33 1006.1 - 0.0 - - - - - - -
08/03:00am 18.5 NNE 25 31 1006.9 - 0.0 Fine Clear 30 1 1.0 8 S
08/02:30am 18.5 NNE 21 27 1007.7 - 0.0 - - - - - - -
08/02:00am 18.3 NNE 19 25 1008.6 - 0.0 - - - - - - -
08/01:30am 18.4 NNE 20 25 1009.2 - 0.0 - - - - - - -
08/01:00am 18.5 NNE 15 20 1010.0 - 0.0 - - - - - - -
08/12:30am 18.7 NNE 17 21 1010.5 - 0.0 - - - - - - -
08/12:00am 18.8 NNE 20 25 1010.6 - 0.0 - - - - - - -
 
Date/Time
EDT
Temp
°C
Wind Pressure Rain since
9am
mm
Weather Cloud Vis
km
Sea
Height
m
Swell
Dir  Spd
kts
Gust
kts
hPa Trend Height
m
Period
s
Dir
07/11:30pm 18.7 NNE 19 24 1010.9 - 0.0 - - - - - - -
07/11:24pm 18.7 NNE 18 24 1011.0 - 0.0 - - - - - - -
07/11:00pm 18.2 NNE 10 13 1011.5 - 0.0 - - - - - - -
07/10:30pm 17.1 N 9 11 1012.2 - 0.0 - - - - - - -
07/10:00pm 17.6 NNE 12 17 1012.4 - 0.0 - - - - - - -
07/09:30pm 18.1 NNE 15 19 1012.7 - 0.0 - - - - - - -
07/09:00pm 18.2 NNE 16 19 1012.9 - 0.0 Fine Mostly clear 40 1 1.0 8 S
07/08:30pm 18.0 NNE 15 18 1013.1 - 0.0 - - - - - - -
07/08:00pm 17.9 NE 16 18 1013.1 - 0.0 - - - - - - -
07/07:30pm 17.9 NE 14 17 1013.2 - 0.0 - - - - - - -
07/07:00pm 18.1 NE 12 14 1013.2 - 0.0 - - - - - - -
07/06:30pm 18.1 ENE 12 13 1013.0 - 0.0 - - - - - - -
07/06:00pm 18.1 ENE 11 13 1013.1 - 0.0 - - - - - - -
07/05:30pm 18.4 ENE 10 11 1013.2 - 0.0 - - - - - - -
07/05:00pm 18.4 ENE 9 11 1013.5 - 0.0 - - - - - - -
07/04:30pm 18.7 E 7 8 1013.9 - 0.0 - - - - - - -
07/04:00pm 18.8 ESE 6 8 1014.2 - 0.0 - - - - - - -
07/03:30pm 18.7 ESE 5 7 1014.5 - 0.0 - - - - - - -
07/03:00pm 19.3 SSE 6 8 1014.9 - 0.0 Fine Mostly clear 40 1 0.8 8 S
07/02:30pm 19.5 SSE 9 11 1014.9 - 0.0 - - - - - - -
07/02:00pm 19.6 S 10 12 1015.1 - 0.0 - - - - - - -
07/01:30pm 19.3 S 11 14 1015.2 - 0.0 - - - - - - -
07/01:00pm 19.2 S 13 16 1015.4 - 0.0 - - - - - - -
07/12:30pm 19.2 S 13 15 1015.7 - 0.0 - - - - - - -
07/12:00pm 18.8 SSW 15 18 1015.8 - 0.0 - - - - - - -
07/11:30am 18.1 SSW 14 17 1015.9 - 0.0 - - - - - - -
07/11:00am 17.4 SSW 14 16 1015.7 - 0.0 - - - - - - -
07/10:30am 17.3 SSW 13 16 1015.8 - 0.0 - - - - - - -
07/10:00am 17.0 SSW 11 13 1016.1 - 0.0 - - - - - - -
07/09:30am 17.5 SW 9 12 1016.1 - 0.0 - - - - - - -
07/09:00am 17.0 WSW 9 12 1016.2 - 0.0 Fine Mostly clear 40 1 1.0 8 S
07/08:30am 16.7 WSW 10 14 1016.3 - 0.0 - - - - - - -
07/08:00am 16.4 W 11 13 1016.3 - 0.0 - - - - - - -
07/07:30am 16.0 W 10 13 1016.1 - 0.0 - - - - - - -
07/07:00am 15.4 W 11 14 1015.9 - 0.0 - - - - - - -
07/06:30am 15.3 W 11 14 1015.6 - 0.0 - - - - - - -
07/06:00am 14.6 W 12 14 1015.3 - 0.0 - - - - - - -
07/05:30am 14.2 W 12 16 1015.0 - 0.0 - - - - - - -
07/05:00am 14.3 W 12 15 1014.5 - 0.0 - - - - - - -
07/04:30am 14.4 W 13 16 1014.0 - 0.0 - - - - - - -
07/04:00am 14.3 W 13 16 1013.6 - 0.0 - - - - - - -
07/03:30am 14.5 W 15 18 1013.7 - 0.0 - - - - - - -
07/03:00am 14.5 W 14 19 1013.7 - 0.0 Fine Mostly cloudy 25 1 1.0 7 SW
07/02:30am 14.6 W 14 18 1013.8 - 0.0 - - - - - - -
07/02:00am 14.5 W 14 18 1014.2 - 0.0 - - - - - - -
07/01:30am 14.3 W 14 17 1014.2 - 0.0 - - - - - - -
07/01:00am 14.5 W 14 18 1014.5 - 0.0 - - - - - - -
07/12:30am 14.5 WSW 16 20 1014.4 - 0.0 - - - - - - -
07/12:00am 14.5 WSW 15 19 1014.6 - 0.0 - - - - - - -
 
Date/Time
EDT
Temp
°C
Wind Pressure Rain since
9am
mm
Weather Cloud Vis
km
Sea
Height
m
Swell
Dir  Spd
kts
Gust
kts
hPa Trend Height
m
Period
s
Dir
06/11:30pm 14.8 WSW 14 18 1014.8 - 0.0 - - - - - - -
06/11:00pm 15.2 WSW 16 19 1014.6 - 0.0 - - - - - - -
06/10:30pm 15.3 WSW 16 21 1014.5 - 0.0 - - - - - - -
06/10:00pm 15.8 WSW 19 25 1014.3 - 0.0 - - - - - - -
06/09:30pm 15.8 WSW 20 25 1014.2 - 0.0 - - - - - - -
06/09:00pm 15.9 SW 22 26 1013.6 - 0.0 Fine Mostly cloudy 20 1 1.0 7 SW
06/08:30pm 15.9 SW 23 28 1013.5 - 0.0 - - - - - - -
06/08:00pm 15.9 SW 23 27 1013.2 - 0.0 - - - - - - -
06/07:30pm 16.0 SW 22 26 1013.1 - 0.0 - - - - - - -
06/07:00pm 16.0 SW 23 27 1012.6 - 0.0 - - - - - - -
06/06:30pm 16.0 SW 20 24 1012.6 - 0.0 - - - - - - -
06/06:00pm 16.1 SW 19 23 1012.1 - 0.0 - - - - - - -
06/05:30pm 15.9 SW 22 26 1011.6 - 0.0 - - - - - - -
06/05:00pm 16.1 SW 22 27 1011.7 - 0.0 - - - - - - -
06/04:30pm 16.5 SW 18 22 1011.6 - 0.0 - - - - - - -
06/04:00pm 16.4 SW 17 19 1011.6 - 0.0 - - - - - - -
06/03:30pm 16.0 SW 16 18 1011.5 - 0.0 - - - - - - -
06/03:00pm 16.2 SW 16 19 1011.6 - 0.0 Fine Cloudy 15 1 0.5 6 SW
06/02:30pm 16.1 SSW 16 18 1011.4 - 0.0 - - - - - - -
06/02:00pm 16.3 SSW 17 19 1011.3 - 0.0 - - - - - - -
06/01:30pm 16.8 SSW 15 19 1011.5 - 0.0 - - - - - - -
06/01:00pm 17.1 SSW 12 15 1011.8 - 0.0 - - - - - - -
06/12:30pm 17.2 SSW 9 12 1011.7 - 0.0 - - - - - - -
06/12:00pm 17.5 S 10 14 1011.7 - 0.0 - - - - - - -
06/11:30am 17.7 SSW 11 13 1012.2 - 0.0 - - - - - - -
06/11:00am 17.8 SSW 9 12 1012.2 - 0.0 - - - - - - -

Other Formats:

Comma delimited format used in spreadsheet applications
http://www.bom.gov.au/fwo/IDV60701/IDV60701.94933.axf

JavaScript Object Notation format (JSON) in row-major order
http://www.bom.gov.au/fwo/IDV60701/IDV60701.94933.json